PWSweather.com
Personal Weather Stations
Station Observations

BlenheimNZ 7201

Lat: -41.5122524, Lon: 173.9699142

Elevation: 25

Station Type: WH1081

http://www.tokaanuskihire.co.nz/blenheimweather/BlenheimWeather.html

High Low Average
Temperature 72.3°F22.4°C 49.1°F9.5°C 62.3°F16.8°C
Dew Point 58.8°F14.9°C 48.6°F9.2°C 54.7°F12.6°C
Winds 6.9 mph 11.1 kmh Calm Calm 3.0 mph SSE4.8 kmh SSE
Wind Gusts 13.7 mph22.0 kmh -- 6.0 mph9.7 kmh
Humidity 99% 62% 78%
Pressure 30.19 in1022.4 mb 30.07 in1018.3 mb -
Precipitation 0.00 in0.0 mm - -
Hour Temp Dew Point Humidity Winds Wind Gusts Pressure Precip Precip Rate Daily Precip Total
12:00 AM 53.9°F12.2°C 52.2°F11.2°C 94% 1.1 mph W1.8 kmh W 3.1 mph5.0 kmh 30.19 in1022.4 mb 0.00 in0.0 mm 0.00 in/hr0.0 mm/hr 0.00 in0.0 mm
12:30 AM 52.7°F11.5°C 51.0°F10.6°C 94% 1.9 mph W3.1 kmh W 4.5 mph7.2 kmh 30.19 in1022.4 mb 0.00 in0.0 mm 0.00 in/hr0.0 mm/hr 0.00 in0.0 mm
01:00 AM 52.5°F11.4°C 51.1°F10.6°C 95% 1.6 mph W2.6 kmh W 3.1 mph5.0 kmh 30.18 in1022.0 mb 0.00 in0.0 mm 0.00 in/hr0.0 mm/hr 0.00 in0.0 mm
01:30 AM 52.3°F11.3°C 51.0°F10.6°C 95% 1.6 mph W2.6 kmh W 3.1 mph5.0 kmh 30.18 in1022.0 mb 0.00 in0.0 mm 0.00 in/hr0.0 mm/hr 0.00 in0.0 mm
02:00 AM 51.6°F10.9°C 50.2°F10.1°C 95% Calm Calm 0.7 mph1.1 kmh 30.16 in1021.3 mb 0.00 in0.0 mm 0.00 in/hr0.0 mm/hr 0.00 in0.0 mm
02:30 AM 51.3°F10.7°C 50.2°F10.1°C 96% Calm Calm 1.6 mph2.6 kmh 30.16 in1021.3 mb 0.00 in0.0 mm 0.00 in/hr0.0 mm/hr 0.00 in0.0 mm
03:00 AM 51.1°F10.6°C 50.3°F10.2°C 97% 0.3 mph W0.5 kmh W 1.6 mph2.6 kmh 30.16 in1021.3 mb 0.00 in0.0 mm 0.00 in/hr0.0 mm/hr 0.00 in0.0 mm
03:30 AM 50.5°F10.3°C 49.7°F9.8°C 97% 0.7 mph WSW1.1 kmh WSW 2.2 mph3.5 kmh 30.15 in1021.0 mb 0.00 in0.0 mm 0.00 in/hr0.0 mm/hr 0.00 in0.0 mm
04:00 AM 50.2°F10.1°C 49.6°F9.8°C 98% 1.9 mph WNW3.1 kmh WNW 3.1 mph5.0 kmh 30.16 in1021.3 mb 0.00 in0.0 mm 0.00 in/hr0.0 mm/hr 0.00 in0.0 mm
04:30 AM 49.3°F9.6°C 48.7°F9.3°C 98% 1.1 mph SSW1.8 kmh SSW 3.1 mph5.0 kmh 30.16 in1021.3 mb 0.00 in0.0 mm 0.00 in/hr0.0 mm/hr 0.00 in0.0 mm
05:00 AM 49.1°F9.5°C 48.6°F9.2°C 98% Calm Calm 2.2 mph3.5 kmh 30.16 in1021.3 mb 0.00 in0.0 mm 0.00 in/hr0.0 mm/hr 0.00 in0.0 mm
05:30 AM 50.2°F10.1°C 49.6°F9.8°C 98% 1.6 mph W2.6 kmh W 3.1 mph5.0 kmh 30.17 in1021.7 mb 0.00 in0.0 mm 0.00 in/hr0.0 mm/hr 0.00 in0.0 mm
06:00 AM 52.9°F11.6°C 52.6°F11.4°C 99% 2.0 mph S3.2 kmh S 3.1 mph5.0 kmh 30.17 in1021.7 mb 0.00 in0.0 mm 0.00 in/hr0.0 mm/hr 0.00 in0.0 mm
06:30 AM 55.9°F13.3°C 53.9°F12.2°C 93% 2.2 mph W3.5 kmh W 6.0 mph9.7 kmh 30.17 in1021.7 mb 0.00 in0.0 mm 0.00 in/hr0.0 mm/hr 0.00 in0.0 mm
07:00 AM 59.1°F15.1°C 54.9°F12.7°C 86% 0.5 mph WSW0.8 kmh WSW 1.6 mph2.6 kmh 30.17 in1021.7 mb 0.00 in0.0 mm 0.00 in/hr0.0 mm/hr 0.00 in0.0 mm
07:30 AM 61.6°F16.4°C 54.3°F12.4°C 77% 0.7 mph SW1.1 kmh SW 2.2 mph3.5 kmh 30.17 in1021.7 mb 0.00 in0.0 mm 0.00 in/hr0.0 mm/hr 0.00 in0.0 mm
08:00 AM 63.9°F17.7°C 54.3°F12.4°C 71% 1.5 mph NW2.4 kmh NW 3.1 mph5.0 kmh 30.17 in1021.7 mb 0.00 in0.0 mm 0.00 in/hr0.0 mm/hr 0.00 in0.0 mm
08:30 AM 67.5°F19.7°C 56.1°F13.4°C 67% 3.3 mph 5.3 kmh 5.4 mph8.7 kmh 30.17 in1021.7 mb 0.00 in0.0 mm 0.00 in/hr0.0 mm/hr 0.00 in0.0 mm
09:00 AM 68.4°F20.2°C 56.6°F13.7°C 66% 4.1 mph 6.6 kmh 7.6 mph12.2 kmh 30.17 in1021.7 mb 0.00 in0.0 mm 0.00 in/hr0.0 mm/hr 0.00 in0.0 mm
09:30 AM 70.5°F21.4°C 57.3°F14.1°C 63% 2.1 mph E3.4 kmh E 5.4 mph8.7 kmh 30.16 in1021.3 mb 0.00 in0.0 mm 0.00 in/hr0.0 mm/hr 0.00 in0.0 mm
10:00 AM 70.9°F21.6°C 57.2°F14.0°C 62% 3.7 mph E6.0 kmh E 6.9 mph11.1 kmh 30.16 in1021.3 mb 0.00 in0.0 mm 0.00 in/hr0.0 mm/hr 0.00 in0.0 mm
10:30 AM 70.5°F21.4°C 57.3°F14.1°C 63% 3.1 mph NNW5.0 kmh NNW 6.9 mph11.1 kmh 30.16 in1021.3 mb 0.00 in0.0 mm 0.00 in/hr0.0 mm/hr 0.00 in0.0 mm
11:00 AM 70.4°F21.3°C 57.7°F14.3°C 64% 6.2 mph E10.0 kmh E 11.4 mph18.3 kmh 30.16 in1021.3 mb 0.00 in0.0 mm 0.00 in/hr0.0 mm/hr 0.00 in0.0 mm
11:30 AM 70.3°F21.3°C 58.0°F14.4°C 65% 5.8 mph E9.3 kmh E 9.8 mph15.8 kmh 30.15 in1021.0 mb 0.00 in0.0 mm 0.00 in/hr0.0 mm/hr 0.00 in0.0 mm
12:00 PM 71.0°F21.7°C 57.8°F14.3°C 63% 5.6 mph ENE9.0 kmh ENE 10.7 mph17.2 kmh 30.15 in1021.0 mb 0.00 in0.0 mm 0.00 in/hr0.0 mm/hr 0.00 in0.0 mm
12:30 PM 71.1°F21.7°C 57.4°F14.1°C 62% 4.2 mph NNE6.8 kmh NNE 9.8 mph15.8 kmh 30.14 in1020.7 mb 0.00 in0.0 mm 0.00 in/hr0.0 mm/hr 0.00 in0.0 mm
01:00 PM 71.5°F21.9°C 58.3°F14.6°C 63% 3.5 mph E5.6 kmh E 7.6 mph12.2 kmh 30.14 in1020.7 mb 0.00 in0.0 mm 0.00 in/hr0.0 mm/hr 0.00 in0.0 mm
01:30 PM 72.3°F22.4°C 58.6°F14.8°C 62% 3.1 mph 5.0 kmh 6.0 mph9.7 kmh 30.13 in1020.3 mb 0.00 in0.0 mm 0.00 in/hr0.0 mm/hr 0.00 in0.0 mm
02:00 PM 72.0°F22.2°C 58.3°F14.6°C 62% 5.1 mph ENE8.2 kmh ENE 12.1 mph19.5 kmh 30.12 in1020.0 mb 0.00 in0.0 mm 0.00 in/hr0.0 mm/hr 0.00 in0.0 mm
02:30 PM 70.6°F21.4°C 58.3°F14.6°C 65% 2.9 mph NE4.7 kmh NE 6.9 mph11.1 kmh 30.11 in1019.6 mb 0.00 in0.0 mm 0.00 in/hr0.0 mm/hr 0.00 in0.0 mm
03:00 PM 69.8°F21.0°C 57.1°F13.9°C 64% 5.1 mph E8.2 kmh E 10.7 mph17.2 kmh 30.11 in1019.6 mb 0.00 in0.0 mm 0.00 in/hr0.0 mm/hr 0.00 in0.0 mm
03:30 PM 69.6°F20.9°C 57.8°F14.3°C 66% 5.1 mph NNW8.2 kmh NNW 13.7 mph22.0 kmh 30.09 in1019.0 mb 0.00 in0.0 mm 0.00 in/hr0.0 mm/hr 0.00 in0.0 mm
04:00 PM 68.7°F20.4°C 57.7°F14.3°C 68% 5.4 mph E8.7 kmh E 9.2 mph14.8 kmh 30.09 in1019.0 mb 0.00 in0.0 mm 0.00 in/hr0.0 mm/hr 0.00 in0.0 mm
04:30 PM 68.5°F20.3°C 58.0°F14.4°C 69% 6.2 mph ENE10.0 kmh ENE 12.1 mph19.5 kmh 30.08 in1018.6 mb 0.00 in0.0 mm 0.00 in/hr0.0 mm/hr 0.00 in0.0 mm
05:00 PM 68.2°F20.1°C 58.8°F14.9°C 72% 6.6 mph E10.6 kmh E 11.4 mph18.3 kmh 30.07 in1018.3 mb 0.00 in0.0 mm 0.00 in/hr0.0 mm/hr 0.00 in0.0 mm
05:30 PM 67.5°F19.7°C 57.7°F14.3°C 71% 6.9 mph E11.1 kmh E 9.8 mph15.8 kmh 30.07 in1018.3 mb 0.00 in0.0 mm 0.00 in/hr0.0 mm/hr 0.00 in0.0 mm
06:00 PM 65.9°F18.8°C 57.0°F13.9°C 73% 5.9 mph E9.5 kmh E 9.8 mph15.8 kmh 30.07 in1018.3 mb 0.00 in0.0 mm 0.00 in/hr0.0 mm/hr 0.00 in0.0 mm
06:30 PM 65.6°F18.7°C 56.7°F13.7°C 73% 6.6 mph E10.6 kmh E 9.8 mph15.8 kmh 30.08 in1018.6 mb 0.00 in0.0 mm 0.00 in/hr0.0 mm/hr 0.00 in0.0 mm
07:00 PM 65.0°F18.3°C 55.8°F13.2°C 72% 2.5 mph ENE4.0 kmh ENE 6.9 mph11.1 kmh 30.08 in1018.6 mb 0.00 in0.0 mm 0.00 in/hr0.0 mm/hr 0.00 in0.0 mm
07:30 PM 63.1°F17.3°C 54.3°F12.4°C 73% 1.6 mph 2.6 kmh 3.1 mph5.0 kmh 30.09 in1019.0 mb 0.00 in0.0 mm 0.00 in/hr0.0 mm/hr 0.00 in0.0 mm
08:00 PM 61.2°F16.2°C 53.2°F11.8°C 75% Calm Calm -- 30.09 in1019.0 mb 0.00 in0.0 mm 0.00 in/hr0.0 mm/hr 0.00 in0.0 mm
08:30 PM 59.9°F15.5°C 53.0°F11.7°C 78% 0.5 mph NE0.8 kmh NE 1.6 mph2.6 kmh 30.10 in1019.3 mb 0.00 in0.0 mm 0.00 in/hr0.0 mm/hr 0.00 in0.0 mm